Flight Briefing for CMB863

Departure Arrival
Ramstein Air Force Base (ETAR)
Click to view FAA NOTAMS
Bahrain International Airport (OBBI)
Click to view FAA NOTAMS
Departure Time Arrival Time
N/A N/A
Aircraft Distance
B757-200SF 2423nm
Departure METAR Arrival METAR
ETAR 221156Z AUTO 07011KT 9999 CLR 18/M02 A3038 RMK AO2 SLP296 T01781025 10178 21015 57016 $ OBBI 221230Z 09012KT CAVOK 23/17 Q1012 TEMPO 09020G30KT -TSRA FEW040CB
Suggested Route
RINEX RIDAR UZ738 UNKEN INVED M747 CND L5 ADINA L851 TBN W71 ERZ A4 VAN OTIDO UM688 DERNU UM688 AD UP975 IMDOX LOPOL L443 RAMSI LADNA


View recent IFR Routes data
Notes
USTRANSCOM CONTRACT FLIGHT

Charts and Procedures

Charts for ETAR
No chart available
Charts for OBBI
No chart available

Windy.com Weather Map